sensor_id;sensor_type;location;lat;lon;timestamp;temperature;humidity
62573;DHT22;48626;51.678;5.806;2022-12-18T00:01:24;-3.50;99.90
62573;DHT22;48626;51.678;5.806;2022-12-18T00:03:50;-3.60;99.90
62573;DHT22;48626;51.678;5.806;2022-12-18T00:06:16;-3.60;99.90
62573;DHT22;48626;51.678;5.806;2022-12-18T00:08:43;-3.60;99.90
62573;DHT22;48626;51.678;5.806;2022-12-18T00:11:15;-3.60;99.90
62573;DHT22;48626;51.678;5.806;2022-12-18T00:13:41;-3.60;99.90
62573;DHT22;48626;51.678;5.806;2022-12-18T00:16:10;-3.70;99.90
62573;DHT22;48626;51.678;5.806;2022-12-18T00:18:36;-3.70;99.90
62573;DHT22;48626;51.678;5.806;2022-12-18T00:21:05;-3.70;99.90
62573;DHT22;48626;51.678;5.806;2022-12-18T00:23:34;-3.80;99.90
62573;DHT22;48626;51.678;5.806;2022-12-18T00:26:01;-3.80;99.90
62573;DHT22;48626;51.678;5.806;2022-12-18T00:28:27;-3.80;99.90
62573;DHT22;48626;51.678;5.806;2022-12-18T00:31:10;-3.80;99.90
62573;DHT22;48626;51.678;5.806;2022-12-18T00:33:36;-3.80;99.90
62573;DHT22;48626;51.678;5.806;2022-12-18T00:36:19;-3.90;99.90
62573;DHT22;48626;51.678;5.806;2022-12-18T00:38:46;-3.90;99.90
62573;DHT22;48626;51.678;5.806;2022-12-18T00:41:14;-3.90;99.90
62573;DHT22;48626;51.678;5.806;2022-12-18T00:43:59;-3.90;99.90
62573;DHT22;48626;51.678;5.806;2022-12-18T00:46:25;-3.90;99.90
62573;DHT22;48626;51.678;5.806;2022-12-18T00:48:51;-3.90;99.90
62573;DHT22;48626;51.678;5.806;2022-12-18T00:51:16;-4.00;99.90
62573;DHT22;48626;51.678;5.806;2022-12-18T00:53:42;-3.90;99.90
62573;DHT22;48626;51.678;5.806;2022-12-18T00:56:08;-4.00;99.90
62573;DHT22;48626;51.678;5.806;2022-12-18T00:58:36;-4.00;99.90
62573;DHT22;48626;51.678;5.806;2022-12-18T01:01:04;-4.00;99.90
62573;DHT22;48626;51.678;5.806;2022-12-18T01:03:30;-4.00;99.90
62573;DHT22;48626;51.678;5.806;2022-12-18T01:05:56;-4.00;99.90
62573;DHT22;48626;51.678;5.806;2022-12-18T01:08:22;-4.10;99.90
62573;DHT22;48626;51.678;5.806;2022-12-18T01:10:47;-4.10;99.90
62573;DHT22;48626;51.678;5.806;2022-12-18T01:13:13;-4.10;99.90
62573;DHT22;48626;51.678;5.806;2022-12-18T01:15:39;-4.10;99.90
62573;DHT22;48626;51.678;5.806;2022-12-18T01:18:05;-4.20;99.90
62573;DHT22;48626;51.678;5.806;2022-12-18T01:20:31;-4.20;99.90
62573;DHT22;48626;51.678;5.806;2022-12-18T01:22:57;-4.20;99.90
62573;DHT22;48626;51.678;5.806;2022-12-18T01:25:23;-4.20;99.90
62573;DHT22;48626;51.678;5.806;2022-12-18T01:27:48;-4.20;99.90
62573;DHT22;48626;51.678;5.806;2022-12-18T01:30:14;-4.20;99.90
62573;DHT22;48626;51.678;5.806;2022-12-18T01:32:40;-4.30;99.90
62573;DHT22;48626;51.678;5.806;2022-12-18T01:35:06;-4.20;99.90
62573;DHT22;48626;51.678;5.806;2022-12-18T01:37:32;-4.30;99.90
62573;DHT22;48626;51.678;5.806;2022-12-18T01:39:58;-4.30;99.90
62573;DHT22;48626;51.678;5.806;2022-12-18T01:42:23;-4.30;99.90
62573;DHT22;48626;51.678;5.806;2022-12-18T01:45:01;-4.30;99.90
62573;DHT22;48626;51.678;5.806;2022-12-18T01:47:46;-4.30;99.90
62573;DHT22;48626;51.678;5.806;2022-12-18T01:50:28;-4.40;99.90
62573;DHT22;48626;51.678;5.806;2022-12-18T01:53:14;-4.40;99.90
62573;DHT22;48626;51.678;5.806;2022-12-18T01:55:44;-4.40;99.90
62573;DHT22;48626;51.678;5.806;2022-12-18T01:58:12;-4.40;99.90
62573;DHT22;48626;51.678;5.806;2022-12-18T02:00:38;-4.40;99.90
62573;DHT22;48626;51.678;5.806;2022-12-18T02:03:04;-4.40;99.90
62573;DHT22;48626;51.678;5.806;2022-12-18T02:08:16;-4.50;99.90
62573;DHT22;48626;51.678;5.806;2022-12-18T02:11:09;-4.50;99.90
62573;DHT22;48626;51.678;5.806;2022-12-18T02:16:37;-4.50;99.90
62573;DHT22;48626;51.678;5.806;2022-12-18T02:21:57;-4.60;99.90
62573;DHT22;48626;51.678;5.806;2022-12-18T02:24:39;-4.60;99.90
62573;DHT22;48626;51.678;5.806;2022-12-18T02:27:09;-4.70;99.90
62573;DHT22;48626;51.678;5.806;2022-12-18T02:29:53;-4.70;99.90
62573;DHT22;48626;51.678;5.806;2022-12-18T02:32:28;-4.70;99.90
62573;DHT22;48626;51.678;5.806;2022-12-18T02:34:56;-4.70;99.90
62573;DHT22;48626;51.678;5.806;2022-12-18T02:37:23;-4.70;99.90
62573;DHT22;48626;51.678;5.806;2022-12-18T02:39:51;-4.70;99.90
62573;DHT22;48626;51.678;5.806;2022-12-18T02:42:19;-4.80;99.90
62573;DHT22;48626;51.678;5.806;2022-12-18T02:44:47;-4.80;99.90
62573;DHT22;48626;51.678;5.806;2022-12-18T02:47:15;-4.80;99.90
62573;DHT22;48626;51.678;5.806;2022-12-18T02:55:39;-4.80;99.90
62573;DHT22;48626;51.678;5.806;2022-12-18T02:58:20;-4.80;99.90
62573;DHT22;48626;51.678;5.806;2022-12-18T03:00:55;-4.80;99.90
62573;DHT22;48626;51.678;5.806;2022-12-18T03:03:25;-4.90;99.90
62573;DHT22;48626;51.678;5.806;2022-12-18T03:06:17;-4.90;99.90
62573;DHT22;48626;51.678;5.806;2022-12-18T03:08:47;-4.90;99.90
62573;DHT22;48626;51.678;5.806;2022-12-18T03:11:15;-4.90;99.90
62573;DHT22;48626;51.678;5.806;2022-12-18T03:13:45;-4.90;99.90
62573;DHT22;48626;51.678;5.806;2022-12-18T03:16:22;-5.00;99.90
62573;DHT22;48626;51.678;5.806;2022-12-18T03:18:58;-5.00;99.90
62573;DHT22;48626;51.678;5.806;2022-12-18T03:21:28;-5.00;99.90
62573;DHT22;48626;51.678;5.806;2022-12-18T03:23:55;-5.00;99.90
62573;DHT22;48626;51.678;5.806;2022-12-18T03:26:24;-5.00;99.90
62573;DHT22;48626;51.678;5.806;2022-12-18T03:29:04;-5.00;99.90
62573;DHT22;48626;51.678;5.806;2022-12-18T03:31:37;-5.00;99.90
62573;DHT22;48626;51.678;5.806;2022-12-18T03:34:09;-5.00;99.90
62573;DHT22;48626;51.678;5.806;2022-12-18T03:36:38;-5.00;99.90
62573;DHT22;48626;51.678;5.806;2022-12-18T03:39:04;-5.00;99.90
62573;DHT22;48626;51.678;5.806;2022-12-18T03:49:56;-5.00;99.90
62573;DHT22;48626;51.678;5.806;2022-12-18T03:52:50;-5.00;99.90
62573;DHT22;48626;51.678;5.806;2022-12-18T03:55:19;-5.00;99.90
62573;DHT22;48626;51.678;5.806;2022-12-18T03:57:48;-5.10;99.90
62573;DHT22;48626;51.678;5.806;2022-12-18T04:00:16;-5.10;99.90
62573;DHT22;48626;51.678;5.806;2022-12-18T04:02:50;-5.10;99.90
62573;DHT22;48626;51.678;5.806;2022-12-18T04:05:17;-5.10;99.90
62573;DHT22;48626;51.678;5.806;2022-12-18T04:07:46;-5.10;99.90
62573;DHT22;48626;51.678;5.806;2022-12-18T04:10:14;-5.10;99.90
62573;DHT22;48626;51.678;5.806;2022-12-18T04:12:41;-5.10;99.90
62573;DHT22;48626;51.678;5.806;2022-12-18T04:15:08;-5.10;99.90
62573;DHT22;48626;51.678;5.806;2022-12-18T04:17:34;-5.10;99.90
62573;DHT22;48626;51.678;5.806;2022-12-18T04:20:00;-5.10;99.90
62573;DHT22;48626;51.678;5.806;2022-12-18T04:22:25;-5.10;99.90
62573;DHT22;48626;51.678;5.806;2022-12-18T04:24:51;-5.10;99.90
62573;DHT22;48626;51.678;5.806;2022-12-18T04:27:16;-5.10;99.90
62573;DHT22;48626;51.678;5.806;2022-12-18T04:29:42;-5.10;99.90
62573;DHT22;48626;51.678;5.806;2022-12-18T04:32:08;-5.10;99.90
62573;DHT22;48626;51.678;5.806;2022-12-18T04:34:34;-5.10;99.90
62573;DHT22;48626;51.678;5.806;2022-12-18T04:36:59;-5.10;99.90
62573;DHT22;48626;51.678;5.806;2022-12-18T04:39:25;-5.10;99.90
62573;DHT22;48626;51.678;5.806;2022-12-18T04:41:51;-5.10;99.90
62573;DHT22;48626;51.678;5.806;2022-12-18T04:44:16;-5.10;99.90
62573;DHT22;48626;51.678;5.806;2022-12-18T04:46:42;-5.10;99.90
62573;DHT22;48626;51.678;5.806;2022-12-18T04:49:07;-5.10;99.90
62573;DHT22;48626;51.678;5.806;2022-12-18T04:51:33;-5.10;99.90
62573;DHT22;48626;51.678;5.806;2022-12-18T04:53:59;-5.10;99.90
62573;DHT22;48626;51.678;5.806;2022-12-18T04:56:24;-5.10;99.90
62573;DHT22;48626;51.678;5.806;2022-12-18T04:58:50;-5.10;99.90
62573;DHT22;48626;51.678;5.806;2022-12-18T05:01:17;-5.10;99.90
62573;DHT22;48626;51.678;5.806;2022-12-18T05:03:43;-5.10;99.90
62573;DHT22;48626;51.678;5.806;2022-12-18T05:06:09;-5.10;99.90
62573;DHT22;48626;51.678;5.806;2022-12-18T05:08:35;-5.10;99.90
62573;DHT22;48626;51.678;5.806;2022-12-18T05:11:05;-5.10;99.90
62573;DHT22;48626;51.678;5.806;2022-12-18T05:13:31;-5.20;99.90
62573;DHT22;48626;51.678;5.806;2022-12-18T05:15:57;-5.20;99.90
62573;DHT22;48626;51.678;5.806;2022-12-18T05:18:24;-5.20;99.90
62573;DHT22;48626;51.678;5.806;2022-12-18T05:20:51;-5.20;99.90
62573;DHT22;48626;51.678;5.806;2022-12-18T05:23:17;-5.20;99.90
62573;DHT22;48626;51.678;5.806;2022-12-18T05:25:42;-5.20;99.90
62573;DHT22;48626;51.678;5.806;2022-12-18T05:28:08;-5.30;99.90
62573;DHT22;48626;51.678;5.806;2022-12-18T05:30:33;-5.30;99.90
62573;DHT22;48626;51.678;5.806;2022-12-18T05:32:59;-5.20;99.90
62573;DHT22;48626;51.678;5.806;2022-12-18T05:35:25;-5.30;99.90
62573;DHT22;48626;51.678;5.806;2022-12-18T05:37:50;-5.30;99.90
62573;DHT22;48626;51.678;5.806;2022-12-18T05:40:16;-5.30;99.90
62573;DHT22;48626;51.678;5.806;2022-12-18T05:42:41;-5.30;99.90
62573;DHT22;48626;51.678;5.806;2022-12-18T05:45:07;-5.30;99.90
62573;DHT22;48626;51.678;5.806;2022-12-18T05:47:33;-5.30;99.90
62573;DHT22;48626;51.678;5.806;2022-12-18T05:49:59;-5.40;99.90
62573;DHT22;48626;51.678;5.806;2022-12-18T05:52:24;-5.30;99.90
62573;DHT22;48626;51.678;5.806;2022-12-18T05:54:50;-5.30;99.90
62573;DHT22;48626;51.678;5.806;2022-12-18T05:57:16;-5.30;99.90
62573;DHT22;48626;51.678;5.806;2022-12-18T05:59:41;-5.30;99.90
62573;DHT22;48626;51.678;5.806;2022-12-18T06:02:07;-5.30;99.90
62573;DHT22;48626;51.678;5.806;2022-12-18T06:04:33;-5.30;99.90
62573;DHT22;48626;51.678;5.806;2022-12-18T06:06:58;-5.30;99.90
62573;DHT22;48626;51.678;5.806;2022-12-18T06:09:24;-5.30;99.90
62573;DHT22;48626;51.678;5.806;2022-12-18T06:11:51;-5.30;99.90
62573;DHT22;48626;51.678;5.806;2022-12-18T06:14:17;-5.30;99.90
62573;DHT22;48626;51.678;5.806;2022-12-18T06:16:43;-5.30;99.90
62573;DHT22;48626;51.678;5.806;2022-12-18T06:19:14;-5.20;99.90
62573;DHT22;48626;51.678;5.806;2022-12-18T06:21:40;-5.30;99.90
62573;DHT22;48626;51.678;5.806;2022-12-18T06:24:06;-5.20;99.90
62573;DHT22;48626;51.678;5.806;2022-12-18T06:26:32;-5.20;99.90
62573;DHT22;48626;51.678;5.806;2022-12-18T06:28:57;-5.20;99.90
62573;DHT22;48626;51.678;5.806;2022-12-18T06:31:23;-5.20;99.90
62573;DHT22;48626;51.678;5.806;2022-12-18T06:33:49;-5.20;99.90
62573;DHT22;48626;51.678;5.806;2022-12-18T06:36:15;-5.20;99.90
62573;DHT22;48626;51.678;5.806;2022-12-18T06:38:43;-5.20;99.90
62573;DHT22;48626;51.678;5.806;2022-12-18T06:41:14;-5.20;99.90
62573;DHT22;48626;51.678;5.806;2022-12-18T06:43:40;-5.20;99.90
62573;DHT22;48626;51.678;5.806;2022-12-18T06:46:06;-5.20;99.90
62573;DHT22;48626;51.678;5.806;2022-12-18T06:48:32;-5.20;99.90
62573;DHT22;48626;51.678;5.806;2022-12-18T06:50:58;-5.10;99.90
62573;DHT22;48626;51.678;5.806;2022-12-18T06:53:24;-5.10;99.90
62573;DHT22;48626;51.678;5.806;2022-12-18T06:55:50;-5.00;99.90
62573;DHT22;48626;51.678;5.806;2022-12-18T06:58:16;-5.00;99.90
62573;DHT22;48626;51.678;5.806;2022-12-18T07:00:42;-5.00;99.90
62573;DHT22;48626;51.678;5.806;2022-12-18T07:03:08;-5.00;99.90
62573;DHT22;48626;51.678;5.806;2022-12-18T07:05:34;-4.90;99.90
62573;DHT22;48626;51.678;5.806;2022-12-18T07:07:59;-4.90;99.90
62573;DHT22;48626;51.678;5.806;2022-12-18T07:10:25;-4.90;99.90
62573;DHT22;48626;51.678;5.806;2022-12-18T07:12:51;-4.90;99.90
62573;DHT22;48626;51.678;5.806;2022-12-18T07:15:17;-4.90;99.90
62573;DHT22;48626;51.678;5.806;2022-12-18T07:17:42;-4.80;99.90
62573;DHT22;48626;51.678;5.806;2022-12-18T07:20:08;-4.80;99.90
62573;DHT22;48626;51.678;5.806;2022-12-18T07:22:34;-4.80;99.90
62573;DHT22;48626;51.678;5.806;2022-12-18T07:25:00;-4.80;99.90
62573;DHT22;48626;51.678;5.806;2022-12-18T07:27:25;-4.90;99.90
62573;DHT22;48626;51.678;5.806;2022-12-18T07:29:51;-4.90;99.90
62573;DHT22;48626;51.678;5.806;2022-12-18T07:32:17;-4.90;99.90
62573;DHT22;48626;51.678;5.806;2022-12-18T07:34:42;-4.80;99.90
62573;DHT22;48626;51.678;5.806;2022-12-18T07:37:08;-4.80;99.90
62573;DHT22;48626;51.678;5.806;2022-12-18T07:39:34;-4.80;99.90
62573;DHT22;48626;51.678;5.806;2022-12-18T07:41:59;-4.80;99.90
62573;DHT22;48626;51.678;5.806;2022-12-18T07:44:43;-4.80;99.90
62573;DHT22;48626;51.678;5.806;2022-12-18T07:47:09;-4.70;99.90
62573;DHT22;48626;51.678;5.806;2022-12-18T07:49:34;-4.70;99.90
62573;DHT22;48626;51.678;5.806;2022-12-18T07:52:00;-4.70;99.90
62573;DHT22;48626;51.678;5.806;2022-12-18T07:54:27;-4.60;99.90
62573;DHT22;48626;51.678;5.806;2022-12-18T07:56:52;-4.60;99.90
62573;DHT22;48626;51.678;5.806;2022-12-18T07:59:18;-4.50;99.90
62573;DHT22;48626;51.678;5.806;2022-12-18T08:01:44;-4.50;99.90
62573;DHT22;48626;51.678;5.806;2022-12-18T08:04:09;-4.50;99.90
62573;DHT22;48626;51.678;5.806;2022-12-18T08:06:35;-4.40;99.90
62573;DHT22;48626;51.678;5.806;2022-12-18T08:09:01;-4.30;99.90
62573;DHT22;48626;51.678;5.806;2022-12-18T08:11:28;-4.30;99.90
62573;DHT22;48626;51.678;5.806;2022-12-18T08:13:55;-4.20;99.90
62573;DHT22;48626;51.678;5.806;2022-12-18T08:16:21;-4.10;99.90
62573;DHT22;48626;51.678;5.806;2022-12-18T08:18:48;-4.00;99.90
62573;DHT22;48626;51.678;5.806;2022-12-18T08:21:16;-3.90;99.90
62573;DHT22;48626;51.678;5.806;2022-12-18T08:23:42;-3.80;99.90
62573;DHT22;48626;51.678;5.806;2022-12-18T08:26:08;-3.80;99.90
62573;DHT22;48626;51.678;5.806;2022-12-18T08:28:34;-3.70;99.90
62573;DHT22;48626;51.678;5.806;2022-12-18T08:31:00;-3.70;99.90
62573;DHT22;48626;51.678;5.806;2022-12-18T08:33:26;-3.60;99.90
62573;DHT22;48626;51.678;5.806;2022-12-18T08:35:52;-3.60;99.90
62573;DHT22;48626;51.678;5.806;2022-12-18T08:38:17;-3.50;99.90
62573;DHT22;48626;51.678;5.806;2022-12-18T08:40:43;-3.40;99.90
62573;DHT22;48626;51.678;5.806;2022-12-18T08:43:10;-3.40;99.90
62573;DHT22;48626;51.678;5.806;2022-12-18T08:45:55;-3.30;99.90
62573;DHT22;48626;51.678;5.806;2022-12-18T08:48:20;-3.30;99.90
62573;DHT22;48626;51.678;5.806;2022-12-18T08:50:56;-3.30;99.90
62573;DHT22;48626;51.678;5.806;2022-12-18T08:53:22;-3.20;99.90
62573;DHT22;48626;51.678;5.806;2022-12-18T08:55:48;-3.20;99.90
62573;DHT22;48626;51.678;5.806;2022-12-18T08:58:14;-3.10;99.90
62573;DHT22;48626;51.678;5.806;2022-12-18T09:00:39;-3.10;99.90
62573;DHT22;48626;51.678;5.806;2022-12-18T09:03:05;-3.00;99.90
62573;DHT22;48626;51.678;5.806;2022-12-18T09:05:30;-3.00;99.90
62573;DHT22;48626;51.678;5.806;2022-12-18T09:07:56;-2.90;99.90
62573;DHT22;48626;51.678;5.806;2022-12-18T09:10:21;-2.70;99.90
62573;DHT22;48626;51.678;5.806;2022-12-18T09:12:47;-2.70;99.90
62573;DHT22;48626;51.678;5.806;2022-12-18T09:15:13;-2.60;99.90
62573;DHT22;48626;51.678;5.806;2022-12-18T09:17:38;-2.50;99.90
62573;DHT22;48626;51.678;5.806;2022-12-18T09:20:04;-2.50;99.90
62573;DHT22;48626;51.678;5.806;2022-12-18T09:22:30;-2.40;99.90
62573;DHT22;48626;51.678;5.806;2022-12-18T09:24:56;-2.30;99.90
62573;DHT22;48626;51.678;5.806;2022-12-18T09:27:22;-2.30;99.90
62573;DHT22;48626;51.678;5.806;2022-12-18T09:29:47;-2.30;99.90
62573;DHT22;48626;51.678;5.806;2022-12-18T09:32:13;-2.20;99.90
62573;DHT22;48626;51.678;5.806;2022-12-18T09:34:38;-2.10;99.90
62573;DHT22;48626;51.678;5.806;2022-12-18T09:37:05;-2.10;99.90
62573;DHT22;48626;51.678;5.806;2022-12-18T09:39:30;-2.00;99.90
62573;DHT22;48626;51.678;5.806;2022-12-18T09:41:57;-2.00;99.90
62573;DHT22;48626;51.678;5.806;2022-12-18T09:44:39;-2.00;99.90
62573;DHT22;48626;51.678;5.806;2022-12-18T09:47:25;-1.90;99.90
62573;DHT22;48626;51.678;5.806;2022-12-18T09:50:00;-1.80;99.90
62573;DHT22;48626;51.678;5.806;2022-12-18T09:57:45;-1.60;99.90
62573;DHT22;48626;51.678;5.806;2022-12-18T10:00:20;-1.50;99.90
62573;DHT22;48626;51.678;5.806;2022-12-18T10:02:47;-1.50;99.90
62573;DHT22;48626;51.678;5.806;2022-12-18T10:10:53;-1.20;99.90
62573;DHT22;48626;51.678;5.806;2022-12-18T10:13:42;-1.20;99.90
62573;DHT22;48626;51.678;5.806;2022-12-18T10:16:29;-1.10;99.90
62573;DHT22;48626;51.678;5.806;2022-12-18T10:25:46;-0.90;99.90
62573;DHT22;48626;51.678;5.806;2022-12-18T10:27:56;-0.80;99.90
62573;DHT22;48626;51.678;5.806;2022-12-18T10:30:24;-0.80;99.90
62573;DHT22;48626;51.678;5.806;2022-12-18T10:32:50;-0.70;99.90
62573;DHT22;48626;51.678;5.806;2022-12-18T10:35:24;-0.70;99.90
62573;DHT22;48626;51.678;5.806;2022-12-18T10:38:34;-0.60;99.90
62573;DHT22;48626;51.678;5.806;2022-12-18T10:41:23;-0.60;99.90
62573;DHT22;48626;51.678;5.806;2022-12-18T10:44:21;-0.60;99.90
62573;DHT22;48626;51.678;5.806;2022-12-18T10:46:54;-0.50;99.90
62573;DHT22;48626;51.678;5.806;2022-12-18T10:49:26;-0.50;99.90
62573;DHT22;48626;51.678;5.806;2022-12-18T10:52:11;-0.50;99.90
62573;DHT22;48626;51.678;5.806;2022-12-18T10:54:39;-0.40;99.90
62573;DHT22;48626;51.678;5.806;2022-12-18T10:57:30;-0.30;99.90
62573;DHT22;48626;51.678;5.806;2022-12-18T10:59:59;-0.30;99.90
62573;DHT22;48626;51.678;5.806;2022-12-18T11:02:37;-0.20;99.90
62573;DHT22;48626;51.678;5.806;2022-12-18T11:05:29;-0.20;99.90
62573;DHT22;48626;51.678;5.806;2022-12-18T11:07:56;-0.20;99.90
62573;DHT22;48626;51.678;5.806;2022-12-18T11:10:33;-0.20;99.90
62573;DHT22;48626;51.678;5.806;2022-12-18T11:13:21;-0.10;99.90
62573;DHT22;48626;51.678;5.806;2022-12-18T11:15:48;-0.10;99.90
62573;DHT22;48626;51.678;5.806;2022-12-18T11:18:34;0.00;99.90
62573;DHT22;48626;51.678;5.806;2022-12-18T11:21:07;0.00;99.90
62573;DHT22;48626;51.678;5.806;2022-12-18T11:23:34;0.10;99.90
62573;DHT22;48626;51.678;5.806;2022-12-18T11:26:04;0.00;99.90
62573;DHT22;48626;51.678;5.806;2022-12-18T11:31:19;0.10;99.90
62573;DHT22;48626;51.678;5.806;2022-12-18T11:36:23;0.20;99.90
62573;DHT22;48626;51.678;5.806;2022-12-18T11:38:51;0.20;99.90
62573;DHT22;48626;51.678;5.806;2022-12-18T11:41:26;0.20;99.90
62573;DHT22;48626;51.678;5.806;2022-12-18T11:44:28;0.20;99.90
62573;DHT22;48626;51.678;5.806;2022-12-18T11:47:05;0.30;99.90
62573;DHT22;48626;51.678;5.806;2022-12-18T11:49:35;0.30;99.90
62573;DHT22;48626;51.678;5.806;2022-12-18T11:52:03;0.40;99.90
62573;DHT22;48626;51.678;5.806;2022-12-18T11:54:30;0.40;99.90
62573;DHT22;48626;51.678;5.806;2022-12-18T12:02:42;0.50;99.90
62573;DHT22;48626;51.678;5.806;2022-12-18T12:26:30;0.70;99.90
62573;DHT22;48626;51.678;5.806;2022-12-18T12:32:01;0.80;99.90
62573;DHT22;48626;51.678;5.806;2022-12-18T12:35:25;0.80;99.90
62573;DHT22;48626;51.678;5.806;2022-12-18T12:38:06;0.80;99.90
62573;DHT22;48626;51.678;5.806;2022-12-18T12:40:38;0.80;99.90
62573;DHT22;48626;51.678;5.806;2022-12-18T12:43:19;0.80;99.90
62573;DHT22;48626;51.678;5.806;2022-12-18T12:45:53;0.80;99.90
62573;DHT22;48626;51.678;5.806;2022-12-18T12:51:37;0.90;99.90
62573;DHT22;48626;51.678;5.806;2022-12-18T12:54:09;0.90;99.90
62573;DHT22;48626;51.678;5.806;2022-12-18T12:59:22;0.90;99.90
62573;DHT22;48626;51.678;5.806;2022-12-18T13:04:45;0.90;99.90
62573;DHT22;48626;51.678;5.806;2022-12-18T13:07:22;0.90;99.90
62573;DHT22;48626;51.678;5.806;2022-12-18T13:12:50;0.90;99.90
62573;DHT22;48626;51.678;5.806;2022-12-18T13:18:10;0.80;99.90
62573;DHT22;48626;51.678;5.806;2022-12-18T13:20:46;0.90;99.90
62573;DHT22;48626;51.678;5.806;2022-12-18T13:23:36;0.90;99.90
62573;DHT22;48626;51.678;5.806;2022-12-18T13:28:52;0.90;99.90
62573;DHT22;48626;51.678;5.806;2022-12-18T13:34:23;0.90;99.90
62573;DHT22;48626;51.678;5.806;2022-12-18T13:36:49;0.80;99.90
62573;DHT22;48626;51.678;5.806;2022-12-18T13:41:44;0.90;99.90
62573;DHT22;48626;51.678;5.806;2022-12-18T13:44:36;0.90;99.90
62573;DHT22;48626;51.678;5.806;2022-12-18T13:49:50;0.80;99.70
62573;DHT22;48626;51.678;5.806;2022-12-18T13:52:25;0.90;99.90
62573;DHT22;48626;51.678;5.806;2022-12-18T13:54:56;0.90;99.90
62573;DHT22;48626;51.678;5.806;2022-12-18T13:57:34;0.90;99.90
62573;DHT22;48626;51.678;5.806;2022-12-18T14:02:48;0.90;99.90
62573;DHT22;48626;51.678;5.806;2022-12-18T14:07:54;1.00;99.90
62573;DHT22;48626;51.678;5.806;2022-12-18T14:10:21;1.00;99.90
62573;DHT22;48626;51.678;5.806;2022-12-18T14:12:48;0.90;99.90
62573;DHT22;48626;51.678;5.806;2022-12-18T14:18:16;1.00;99.90
62573;DHT22;48626;51.678;5.806;2022-12-18T14:20:49;1.00;99.90
62573;DHT22;48626;51.678;5.806;2022-12-18T14:23:45;0.90;99.90
62573;DHT22;48626;51.678;5.806;2022-12-18T14:26:25;1.00;99.90
62573;DHT22;48626;51.678;5.806;2022-12-18T14:28:55;1.00;99.90
62573;DHT22;48626;51.678;5.806;2022-12-18T14:31:25;0.90;99.90
62573;DHT22;48626;51.678;5.806;2022-12-18T14:33:52;1.00;99.90
62573;DHT22;48626;51.678;5.806;2022-12-18T14:36:23;0.90;99.90
62573;DHT22;48626;51.678;5.806;2022-12-18T14:38:58;0.90;99.90
62573;DHT22;48626;51.678;5.806;2022-12-18T14:41:25;0.90;99.60
62573;DHT22;48626;51.678;5.806;2022-12-18T14:43:52;0.80;99.30
62573;DHT22;48626;51.678;5.806;2022-12-18T14:46:38;0.80;99.90
62573;DHT22;48626;51.678;5.806;2022-12-18T14:51:49;0.80;99.90
62573;DHT22;48626;51.678;5.806;2022-12-18T14:54:17;0.80;99.10
62573;DHT22;48626;51.678;5.806;2022-12-18T14:56:49;0.80;98.90
62573;DHT22;48626;51.678;5.806;2022-12-18T14:59:24;0.80;99.90
62573;DHT22;48626;51.678;5.806;2022-12-18T15:04:38;0.80;99.90
62573;DHT22;48626;51.678;5.806;2022-12-18T15:09:42;0.80;99.30
62573;DHT22;48626;51.678;5.806;2022-12-18T15:15:00;0.80;99.30
62573;DHT22;48626;51.678;5.806;2022-12-18T15:17:26;0.80;99.60
62573;DHT22;48626;51.678;5.806;2022-12-18T15:19:57;0.80;99.20
62573;DHT22;48626;51.678;5.806;2022-12-18T15:22:27;0.80;99.40
62573;DHT22;48626;51.678;5.806;2022-12-18T15:24:55;0.70;98.60
62573;DHT22;48626;51.678;5.806;2022-12-18T15:30:24;0.70;99.00
62573;DHT22;48626;51.678;5.806;2022-12-18T15:32:51;0.70;99.00
62573;DHT22;48626;51.678;5.806;2022-12-18T15:35:20;0.70;99.50
62573;DHT22;48626;51.678;5.806;2022-12-18T15:37:46;0.70;99.50
62573;DHT22;48626;51.678;5.806;2022-12-18T15:40:21;0.70;99.50
62573;DHT22;48626;51.678;5.806;2022-12-18T15:42:47;0.70;99.60
62573;DHT22;48626;51.678;5.806;2022-12-18T15:45:32;0.70;99.70
62573;DHT22;48626;51.678;5.806;2022-12-18T15:47:58;0.70;99.90
62573;DHT22;48626;51.678;5.806;2022-12-18T15:50:24;0.70;99.60
62573;DHT22;48626;51.678;5.806;2022-12-18T15:52:52;0.70;99.70
62573;DHT22;48626;51.678;5.806;2022-12-18T15:55:21;0.70;99.40
62573;DHT22;48626;51.678;5.806;2022-12-18T15:58:26;0.70;99.40
62573;DHT22;48626;51.678;5.806;2022-12-18T16:00:51;0.70;99.90
62573;DHT22;48626;51.678;5.806;2022-12-18T16:03:17;0.70;99.40
62573;DHT22;48626;51.678;5.806;2022-12-18T16:05:43;0.70;99.90
62573;DHT22;48626;51.678;5.806;2022-12-18T16:08:08;0.70;99.70
62573;DHT22;48626;51.678;5.806;2022-12-18T16:10:34;0.70;99.40
62573;DHT22;48626;51.678;5.806;2022-12-18T16:13:00;0.70;99.90
62573;DHT22;48626;51.678;5.806;2022-12-18T16:15:26;0.70;99.00
62573;DHT22;48626;51.678;5.806;2022-12-18T16:17:51;0.70;99.00
62573;DHT22;48626;51.678;5.806;2022-12-18T16:20:20;0.70;98.70
62573;DHT22;48626;51.678;5.806;2022-12-18T16:22:46;0.70;98.80
62573;DHT22;48626;51.678;5.806;2022-12-18T16:25:27;0.70;99.30
62573;DHT22;48626;51.678;5.806;2022-12-18T16:27:53;0.70;98.70
62573;DHT22;48626;51.678;5.806;2022-12-18T16:30:28;0.70;98.80
62573;DHT22;48626;51.678;5.806;2022-12-18T16:32:56;0.60;99.20
62573;DHT22;48626;51.678;5.806;2022-12-18T16:35:22;0.70;99.50
62573;DHT22;48626;51.678;5.806;2022-12-18T16:37:48;0.70;99.50
62573;DHT22;48626;51.678;5.806;2022-12-18T16:40:16;0.70;99.30
62573;DHT22;48626;51.678;5.806;2022-12-18T16:42:43;0.70;99.10
62573;DHT22;48626;51.678;5.806;2022-12-18T16:45:13;0.60;98.80
62573;DHT22;48626;51.678;5.806;2022-12-18T16:47:39;0.70;99.30
62573;DHT22;48626;51.678;5.806;2022-12-18T16:50:06;0.70;99.10
62573;DHT22;48626;51.678;5.806;2022-12-18T16:52:32;0.60;99.10
62573;DHT22;48626;51.678;5.806;2022-12-18T16:54:58;0.70;99.40
62573;DHT22;48626;51.678;5.806;2022-12-18T16:57:24;0.70;98.80
62573;DHT22;48626;51.678;5.806;2022-12-18T16:59:49;0.70;99.10
62573;DHT22;48626;51.678;5.806;2022-12-18T17:02:21;0.60;99.40
62573;DHT22;48626;51.678;5.806;2022-12-18T17:04:47;0.70;99.30
62573;DHT22;48626;51.678;5.806;2022-12-18T17:07:14;0.70;99.50
62573;DHT22;48626;51.678;5.806;2022-12-18T17:09:39;0.70;99.10
62573;DHT22;48626;51.678;5.806;2022-12-18T17:12:05;0.70;99.30
62573;DHT22;48626;51.678;5.806;2022-12-18T17:14:32;0.60;99.20
62573;DHT22;48626;51.678;5.806;2022-12-18T17:16:58;0.60;99.10
62573;DHT22;48626;51.678;5.806;2022-12-18T17:19:25;0.60;99.40
62573;DHT22;48626;51.678;5.806;2022-12-18T17:21:51;0.60;99.40
62573;DHT22;48626;51.678;5.806;2022-12-18T17:24:17;0.70;99.90
62573;DHT22;48626;51.678;5.806;2022-12-18T17:26:43;0.70;99.40
62573;DHT22;48626;51.678;5.806;2022-12-18T17:29:13;0.60;99.40
62573;DHT22;48626;51.678;5.806;2022-12-18T17:31:38;0.70;99.60
62573;DHT22;48626;51.678;5.806;2022-12-18T17:34:04;0.60;99.60
62573;DHT22;48626;51.678;5.806;2022-12-18T17:36:30;0.60;99.60
62573;DHT22;48626;51.678;5.806;2022-12-18T17:38:58;0.70;99.80
62573;DHT22;48626;51.678;5.806;2022-12-18T17:41:26;0.70;99.90
62573;DHT22;48626;51.678;5.806;2022-12-18T17:43:54;0.70;99.90
62573;DHT22;48626;51.678;5.806;2022-12-18T17:46:20;0.70;99.90
62573;DHT22;48626;51.678;5.806;2022-12-18T17:48:46;0.70;99.70
62573;DHT22;48626;51.678;5.806;2022-12-18T17:51:12;0.70;99.90
62573;DHT22;48626;51.678;5.806;2022-12-18T17:53:38;0.70;99.70